N1VFU Weather Reports


time (UTC)temp
C
wind
direction
speed
KPH
gust
KPH
rain 1hr
cm
rain 24hr
cm
rain mn
cm
humidity
%
barometer
mb
20201126042727 0 179 0.0 0.0 0.15 0.36 0.36 94 1026.2
20201126042227 0 179 0.0 0.0 0.13 0.33 0.33 94 1026.4
20201126041724 0 179 0.0 0.0 0.15 0.33 0.33 94 1026.3
20201126041224 0 179 0.0 0.0 0.15 0.30 0.30 94 1026.3
20201126040723 0 179 0.0 0.0 0.18 0.30 0.30 94 1026.2
20201126040223 1 179 0.0 0.0 0.15 0.28 0.28 94 1026.3
20201126035726 0 179 0.0 0.0 0.18 0.28 0.28 94 1026.2
20201126035224 0 179 0.0 0.0 0.20 0.28 0.28 94 1026.3
20201126034728 1 179 0.0 0.0 0.18 0.25 0.25 94 1026.2
20201126034228 1 179 0.0 0.0 0.20 0.25 0.25 94 1026.3
20201126033732 1 179 0.0 0.0 0.18 0.23 0.23 94 1026.2
20201126033229 1 179 0.0 0.0 0.20 0.23 0.23 93 1026.2
20201126032727 1 179 0.0 0.0 0.18 0.20 0.20 93 1026.3
20201126032232 1 179 0.0 0.0 0.15 0.18 0.18 93 1026.4
20201126031729 1 179 0.0 0.0 0.15 0.18 0.18 93 1026.4
20201126031212 1 179 0.0 0.0 0.13 0.15 0.15 93 1026.7
20201126030730 1 179 0.0 0.0 0.10 0.13 0.13 93 1026.8
20201126030211 1 179 0.0 0.0 0.08 0.10 0.10 93 1026.6
20201126025719 1 179 0.0 0.0 0.08 0.10 0.10 93 1026.6
20201126025218 0 179 0.0 0.0 0.08 0.08 0.08 93 1026.6
20201126024719 0 179 0.0 0.0 0.05 0.05 0.08 93 1026.6
20201126024222 0 179 0.0 0.0 0.05 0.05 0.05 93 1026.6
20201126023722 0 179 0.0 0.0 0.05 0.05 0.05 93 1026.6
20201126023223 0 179 0.0 0.0 0.03 0.03 0.03 93 1026.7
20201126022723 0 179 0.0 0.0 0.03 0.03 0.03 92 1026.7
20201126022224 0 179 0.0 0.0 0.03 0.03 0.03 92 1026.6
20201126021735 0 179 0.0 0.0 0.03 0.03 0.03 92 1026.5
20201126021229 0 179 0.0 0.0 0.03 0.03 0.03 92 1026.4
20201126020728 0 179 0.0 0.0 0.03 0.03 0.03 92 1026.4
20201126020233 0 179 0.0 0.0 0.03 0.03 0.03 92 1026.4
20201126015712 0 179 0.0 0.0 0.03 0.03 0.03 91 1026.5
20201126015213 0 179 0.0 0.0 0.00 0.00 0.00 91 1026.5
20201126014720 0 179 0.0 0.0 0.00 0.00 0.00 91 1026.5
20201126014220 0 179 0.0 0.0 0.00 0.00 0.00 91 1026.5
20201126013716 0 179 0.0 0.0 0.00 0.00 0.00 90 1026.6
20201126013219 0 179 0.0 0.0 0.00 0.00 0.00 90 1026.5
20201126012721 0 179 0.0 0.0 0.00 0.00 0.00 90 1026.6
20201126012220 0 179 0.0 0.0 0.00 0.00 0.00 90 1026.6
20201126011729 0 179 0.0 0.0 0.00 0.00 0.00 89 1026.6
20201126011225 0 179 0.0 0.0 0.00 0.00 0.00 89 1026.5
20201126010731 0 179 0.0 0.0 0.00 0.00 0.00 88 1026.5
20201126010245 0 179 0.0 0.0 0.00 0.00 0.00 87 1026.5
20201126005740 0 179 0.0 0.0 0.00 0.00 0.00 87 1026.5
20201126005230 0 179 0.0 0.0 0.00 0.00 0.00 86 1026.6
20201126004737 0 179 0.0 0.0 0.00 0.00 0.00 85 1026.7
20201126004231 0 179 0.0 0.0 0.00 0.00 0.00 85 1026.7
20201126003718 0 179 0.0 0.0 0.00 0.00 0.00 84 1026.7
20201126003214 0 179 0.0 0.0 0.00 0.00 0.00 84 1026.7
20201126002713 0 179 0.0 0.0 0.00 0.00 0.00 83 1026.8
20201126002219 0 179 0.0 0.0 0.00 0.00 0.00 83 1026.9
20201126001714 0 179 0.0 0.0 0.00 0.00 0.00 83 1026.9
20201126001215 0 179 0.0 0.0 0.00 0.00 0.00 83 1026.9
20201126000716 0 179 0.0 0.0 0.00 0.00 0.00 83 1027.0
20201126000217 0 179 0.0 0.0 0.00 0.00 0.00 83 1026.9
20201125235717 0 179 0.0 0.0 0.00 0.00 0.00 83 1026.9
20201125235223 0 179 0.0 0.0 0.00 0.00 0.00 83 1027.0
20201125234725 0 179 0.0 0.0 0.00 0.00 0.00 83 1026.9
20201125234228 0 179 0.0 0.0 0.00 0.00 0.00 82 1026.9
20201125233728 0 179 0.0 0.0 0.00 0.00 0.00 81 1026.9
20201125233229 0 179 0.0 0.0 0.00 0.00 0.00 82 1027.0
20201125232729 0 179 0.0 0.0 0.00 0.00 0.00 82 1027.0
20201125232230 0 179 0.0 0.0 0.00 0.00 0.00 81 1027.0
20201125231729 0 179 0.0 0.0 0.00 0.00 0.00 81 1026.9
20201125231212 0 179 0.0 0.0 0.00 0.00 0.00 81 1026.9
20201125230712 0 179 0.0 0.0 0.00 0.00 0.00 81 1026.8
20201125230212 0 179 0.0 0.0 0.00 0.00 0.00 82 1026.8
20201125225713 0 179 0.0 0.0 0.00 0.00 0.00 81 1026.8
20201125225225 0 179 0.0 0.0 0.00 0.00 0.00 81 1026.9
20201125224725 0 179 0.0 0.0 0.00 0.00 0.00 81 1027.0
20201125224220 0 179 0.0 0.0 0.00 0.00 0.00 80 1027.0
20201125223720 0 179 0.0 0.0 0.00 0.00 0.00 81 1027.0
20201125223224 0 179 0.0 0.0 0.00 0.00 0.00 81 1027.0
20201125222722 0 179 0.0 0.0 0.00 0.00 0.00 80 1026.9
20201125221710 0 179 0.0 0.0 0.00 0.00 0.00 80 1027.1
20201125221212 0 179 0.0 0.0 0.00 0.00 0.00 80 1027.2
20201125220713 0 179 0.0 0.0 0.00 0.00 0.00 79 1027.1
20201125220212 0 179 0.0 0.0 0.00 0.00 0.00 78 1027.2
20201125215712 0 179 0.0 0.0 0.00 0.00 0.00 77 1027.2
20201125215222 0 179 0.0 0.0 0.00 0.00 0.00 77 1027.2
20201125214721 0 179 0.0 0.0 0.00 0.00 0.00 77 1027.2
20201125214221 0 179 0.0 0.0 0.00 0.00 0.00 78 1027.3
20201125213722 0 179 0.0 0.0 0.00 0.00 0.00 79 1027.2
20201125213227 1 179 0.0 0.0 0.00 0.00 0.00 77 1027.2
20201125212803 1 179 0.0 0.0 0.00 0.00 0.00 76 1027.2
20201125212224 1 179 0.0 0.0 0.00 0.00 0.00 75 1027.1
20201125211726 1 179 0.0 0.0 0.00 0.00 0.00 76 1027.2
20201125211221 1 179 0.0 0.0 0.00 0.00 0.00 76 1027.2
20201125210725 1 179 0.0 0.0 0.00 0.00 0.00 76 1027.2
20201125210222 1 179 0.0 0.0 0.00 0.00 0.00 76 1027.3
20201125205724 1 179 0.0 0.0 0.00 0.00 0.00 73 1027.4
20201125205221 1 179 0.0 0.0 0.00 0.00 0.00 72 1027.6
20201125204728 1 179 0.0 0.0 0.00 0.00 0.00 73 1027.3
20201125204221 1 179 0.0 0.0 0.00 0.00 0.00 71 1027.3
20201125203729 1 179 0.0 0.0 0.00 0.00 0.00 71 1027.2
20201125203227 1 179 0.0 0.0 0.00 0.00 0.00 72 1027.6
20201125202727 1 179 0.0 0.0 0.00 0.00 0.00 72 1027.6
20201125202229 1 179 0.0 0.0 0.00 0.00 0.00 72 1027.7
20201125201729 1 179 0.0 0.0 0.00 0.00 0.00 69 1027.6
20201125201228 1 179 0.0 0.0 0.00 0.00 0.00 69 1027.4
20201125200729 1 179 0.0 0.0 0.00 0.00 0.00 70 1027.5
20201125200230 1 179 0.0 0.0 0.00 0.00 0.00 69 1027.3
20201125195734 1 179 0.0 0.0 0.00 0.00 0.00 71 1027.2
20201125195230 1 179 0.0 0.0 0.00 0.00 0.00 70 1027.3
20201125194710 1 179 0.0 0.0 0.00 0.00 0.00 69 1027.3
20201125194231 1 179 0.0 0.0 0.00 0.00 0.00 68 1027.2
20201125193712 1 179 0.0 0.0 0.00 0.00 0.00 69 1027.2
20201125193211 1 179 0.0 0.0 0.00 0.00 0.00 69 1027.2
20201125192711 1 179 0.0 0.0 0.00 0.00 0.00 67 1027.1
20201125192212 1 179 0.0 0.0 0.00 0.00 0.00 67 1027.1
20201125191713 1 179 0.0 0.0 0.00 0.00 0.00 67 1027.2
20201125191213 1 179 0.0 0.0 0.00 0.00 0.00 66 1027.3
20201125190712 1 179 0.0 0.0 0.00 0.00 0.00 67 1027.4
20201125190214 1 179 0.0 0.0 0.00 0.00 0.00 66 1027.6
20201125185714 1 179 0.0 0.0 0.00 0.00 0.00 66 1027.7
20201125185216 1 179 0.0 0.0 0.00 0.00 0.00 66 1027.7
20201125184717 1 179 0.0 1.6 0.00 0.00 0.00 66 1027.8
20201125184217 0 179 0.0 1.6 0.00 0.00 0.00 66 1027.9
20201125183715 0 179 0.0 1.6 0.00 0.00 0.00 66 1028.0
20201125183221 0 179 0.0 1.6 0.00 0.00 0.00 65 1028.0
20201125182725 0 179 0.0 1.6 0.00 0.00 0.00 66 1028.1
20201125182231 0 179 0.0 1.6 0.00 0.00 0.00 67 1028.1
20201125181711 0 179 0.0 1.6 0.00 0.00 0.00 69 1028.4
20201125181212 0 179 1.6 3.2 0.00 0.00 0.00 68 1028.3
20201125180715 0 179 0.0 3.2 0.00 0.00 0.00 67 1028.4
20201125180216 0 179 0.0 1.6 0.00 0.00 0.00 68 1028.3
20201125175714 0 179 0.0 0.0 0.00 0.00 0.00 67 1028.4
20201125175229 0 179 0.0 0.0 0.00 0.00 0.00 66 1028.3
20201125174719 0 179 0.0 0.0 0.00 0.00 0.00 66 1028.2
20201125174217 0 179 0.0 0.0 0.00 0.00 0.00 67 1028.4
20201125173716 0 179 0.0 1.6 0.00 0.00 0.00 68 1028.4
20201125173222 0 179 0.0 1.6 0.00 0.00 0.00 69 1028.8
20201125172722 0 179 0.0 1.6 0.00 0.00 0.00 68 1029.0
20201125172229 0 179 0.0 3.2 0.00 0.00 0.00 68 1029.3
20201125171722 0 179 0.0 3.2 0.00 0.00 0.00 69 1029.4
20201125171224 0 179 1.6 3.2 0.00 0.00 0.00 67 1029.3
20201125170725 0 179 0.0 3.2 0.00 0.00 0.00 66 1029.3
20201125170223 0 179 0.0 1.6 0.00 0.00 0.00 68 1029.3
20201125165725 0 179 0.0 1.6 0.00 0.00 0.00 67 1029.3
20201125165227 0 179 0.0 1.6 0.00 0.00 0.00 67 1029.5
20201125164724 0 179 0.0 8.0 0.00 0.00 0.00 67 1029.6
20201125164227 0 179 1.6 8.0 0.00 0.00 0.00 65 1030.0
20201125163727 0 179 3.2 6.4 0.00 0.00 0.00 65 1030.2
20201125163227 0 179 0.0 3.2 0.00 0.00 0.00 67 1030.2
20201125162710 0 179 0.0 0.0 0.00 0.00 0.00 67 1030.1
20201125162232 0 179 0.0 0.0 0.00 0.00 0.00 67 1030.2
20201125161729 0 179 0.0 0.0 0.00 0.00 0.00 67 1030.2
20201125161230 0 179 0.0 0.0 0.00 0.00 0.00 69 1030.2
20201125160728 0 179 0.0 0.0 0.00 0.00 0.00 69 1030.4
20201125155712 0 179 0.0 0.0 0.00 0.00 0.00 71 1030.7
20201125155214 0 179 0.0 0.0 0.00 0.00 0.00 70 1030.6
20201125154711 0 179 0.0 0.0 0.00 0.00 0.00 71 1030.7
20201125154215 0 179 0.0 0.0 0.00 0.00 0.00 72 1030.9
20201125153730 0 179 0.0 0.0 0.00 0.00 0.00 72 1030.9
20201125153229 0 179 0.0 0.0 0.00 0.00 0.00 72 1031.1
20201125152713 0 179 0.0 0.0 0.00 0.00 0.00 73 1031.4
20201125152231 0 179 0.0 0.0 0.00 0.00 0.00 72 1031.5
20201125151729 -1 179 0.0 0.0 0.00 0.00 0.00 73 1031.5
20201125151229 -1 179 0.0 0.0 0.00 0.00 0.00 73 1031.6
20201125150715 -1 179 0.0 0.0 0.00 0.00 0.00 73 1031.8
20201125150215 -1 179 0.0 1.6 0.00 0.00 0.00 74 1031.9
20201125145712 -1 179 0.0 3.2 0.00 0.00 0.00 74 1031.9
20201125145213 -1 179 0.0 3.2 0.00 0.00 0.00 74 1031.9
20201125144714 -1 179 0.0 3.2 0.00 0.00 0.00 74 1031.7
20201125144215 -1 179 0.0 3.2 0.00 0.00 0.00 74 1031.7
20201125143713 -1 179 0.0 3.2 0.00 0.00 0.00 75 1031.7
20201125143215 -1 179 0.0 3.2 0.00 0.00 0.00 75 1031.9
20201125142716 -1 179 0.0 0.0 0.00 0.00 0.00 75 1031.8
20201125142221 -1 179 0.0 0.0 0.00 0.00 0.00 75 1032.0
20201125141722 -1 179 0.0 0.0 0.00 0.00 0.00 75 1032.2
20201125141223 -1 179 0.0 0.0 0.00 0.00 0.00 75 1032.4
20201125140720 -1 179 0.0 0.0 0.00 0.00 0.00 75 1032.8
20201125140222 -1 179 0.0 0.0 0.00 0.00 0.00 75 1032.9
20201125135722 -1 179 0.0 0.0 0.00 0.00 0.00 75 1032.9
20201125135225 -2 179 0.0 1.6 0.00 0.00 0.00 76 1032.8
20201125134735 -2 179 0.0 1.6 0.00 0.00 0.00 76 1033.0
20201125134224 -2 179 0.0 0.0 0.00 0.00 0.00 76 1032.8
20201125133722 -2 179 0.0 0.0 0.00 0.00 0.00 76 1032.9
20201125133227 -2 179 0.0 0.0 0.00 0.00 0.00 76 1033.1
20201125132724 -2 179 0.0 0.0 0.00 0.00 0.00 76 1033.2
20201125132228 -2 179 0.0 0.0 0.00 0.00 0.00 76 1033.2
20201125131730 -2 179 0.0 0.0 0.00 0.00 0.00 76 1033.3
20201125131308 -2 179 0.0 1.6 0.00 0.00 0.00 77 1033.2
20201125130726 -2 179 0.0 1.6 0.00 0.00 0.00 77 1033.2
20201125130231 -2 179 0.0 0.0 0.00 0.00 0.00 77 1033.2
20201125125726 -2 179 0.0 0.0 0.00 0.00 0.00 77 1033.0
20201125125228 -2 179 0.0 0.0 0.00 0.00 0.00 77 1033.0
20201125124728 -2 179 0.0 0.0 0.00 0.00 0.00 77 1033.0
20201125124233 -2 179 0.0 0.0 0.00 0.00 0.00 77 1033.1
20201125123732 -2 179 0.0 0.0 0.00 0.00 0.00 77 1033.0
20201125123232 -2 179 0.0 0.0 0.00 0.00 0.00 77 1033.0
20201125122713 -2 179 0.0 0.0 0.00 0.00 0.00 77 1033.1
20201125122215 -2 179 0.0 0.0 0.00 0.00 0.00 77 1033.2
20201125121712 -2 179 0.0 0.0 0.00 0.00 0.00 78 1033.4
20201125121218 -2 179 0.0 0.0 0.00 0.00 0.00 77 1033.3
20201125120721 -2 179 0.0 0.0 0.00 0.00 0.00 77 1033.2
20201125120216 -2 179 0.0 0.0 0.00 0.00 0.00 76 1033.1
20201125115714 -2 179 0.0 0.0 0.00 0.00 0.00 76 1033.0
20201125115216 -2 179 0.0 0.0 0.00 0.00 0.00 76 1033.1
20201125114716 -2 179 0.0 1.6 0.00 0.00 0.00 77 1033.2
20201125114219 -2 179 0.0 3.2 0.00 0.00 0.00 77 1033.2
20201125113716 -2 179 0.0 4.8 0.00 0.00 0.00 78 1033.3
20201125113217 -3 179 1.6 6.4 0.00 0.00 0.00 77 1033.4
20201125112717 -3 179 1.6 6.4 0.00 0.00 0.00 77 1033.3
20201125112217 -3 179 0.0 1.6 0.00 0.00 0.00 77 1033.5
20201125111718 -3 179 0.0 1.6 0.00 0.00 0.00 77 1033.6
20201125111221 -3 179 0.0 1.6 0.00 0.00 0.00 77 1033.6
20201125110719 -3 179 0.0 0.0 0.00 0.00 0.00 77 1033.7